| time (UTC) | temp C | wind direction | speed KPH | gust KPH | rain 1hr cm | rain 24hr cm | rain mn cm | humidity % | barometer mb |
| 20260505224002 | 21 | 146 | 12.9 | 20.9 | 0.00 | 0.00 | 0.00 | 76 | 1018.1 |
| 20260505223500 | 21 | 157 | 8.0 | 16.1 | 0.00 | 0.00 | 0.00 | 78 | 1018.2 |
| 20260505222957 | 21 | 135 | 12.9 | 20.9 | 0.00 | 0.00 | 0.00 | 78 | 1018.1 |
| 20260505222455 | 20 | 146 | 17.7 | 22.5 | 0.00 | 0.00 | 0.00 | 79 | 1018.2 |
| 20260505221954 | 20 | 157 | 14.5 | 19.3 | 0.00 | 0.00 | 0.00 | 80 | 1018.1 |
| 20260505221451 | 20 | 135 | 17.7 | 24.1 | 0.00 | 0.00 | 0.00 | 81 | 1018.1 |
| 20260505220948 | 20 | 157 | 14.5 | 17.7 | 0.00 | 0.00 | 0.00 | 82 | 1018.1 |
| 20260505220445 | 20 | 135 | 14.5 | 17.7 | 0.00 | 0.00 | 0.00 | 84 | 1018.2 |
| 20260505215945 | 19 | 135 | 12.9 | 14.5 | 0.00 | 0.00 | 0.00 | 86 | 1018.3 |
| 20260505215441 | 19 | 180 | 12.9 | 16.1 | 0.00 | 0.00 | 0.00 | 87 | 1018.3 |
| 20260505214939 | 18 | 135 | 14.5 | 16.1 | 0.00 | 0.00 | 0.00 | 87 | 1018.4 |
| 20260505214437 | 18 | 146 | 12.9 | 14.5 | 0.00 | 0.00 | 0.00 | 90 | 1018.5 |
| 20260505213432 | 17 | 135 | 14.5 | 14.5 | 0.00 | 0.00 | 0.00 | 93 | 1018.5 |
| 20260505212932 | 17 | 180 | 6.4 | 11.3 | 0.00 | 0.00 | 0.00 | 93 | 1018.5 |
| 20260505212428 | 17 | 135 | 9.7 | 11.3 | 0.00 | 0.00 | 0.00 | 94 | 1018.5 |
| 20260505211925 | 17 | 135 | 9.7 | 9.7 | 0.00 | 0.00 | 0.00 | 94 | 1018.5 |
| 20260505211422 | 17 | 135 | 4.8 | 8.0 | 0.00 | 0.00 | 0.00 | 94 | 1018.5 |
| 20260505210920 | 16 | 135 | 6.4 | 8.0 | 0.00 | 0.00 | 0.00 | 94 | 1018.5 |
| 20260505210424 | 16 | 135 | 4.8 | 4.8 | 0.00 | 0.00 | 0.00 | 94 | 1018.5 |
| 20260505205916 | 16 | 157 | 4.8 | 6.4 | 0.00 | 0.00 | 0.00 | 94 | 1018.3 |
| 20260505205414 | 16 | 135 | 4.8 | 6.4 | 0.00 | 0.00 | 0.00 | 94 | 1018.4 |
| 20260505204911 | 16 | 157 | 6.4 | 6.4 | 0.00 | 0.00 | 0.00 | 94 | 1018.3 |
| 20260505204423 | 16 | 135 | 6.4 | 6.4 | 0.00 | 0.00 | 0.00 | 93 | 1018.3 |
| 20260505203907 | 16 | 157 | 6.4 | 6.4 | 0.00 | 0.00 | 0.00 | 93 | 1018.1 |
| 20260505203405 | 16 | 180 | 4.8 | 4.8 | 0.00 | 0.00 | 0.00 | 92 | 1018.2 |
| 20260505202902 | 16 | 180 | 3.2 | 3.2 | 0.00 | 0.00 | 0.00 | 92 | 1018.1 |
| 20260505202400 | 16 | 157 | 3.2 | 3.2 | 0.00 | 0.00 | 0.00 | 92 | 1018.0 |
| 20260505201857 | 16 | 135 | 3.2 | 4.8 | 0.00 | 0.00 | 0.00 | 92 | 1018.0 |
| 20260505201355 | 16 | 180 | 3.2 | 6.4 | 0.00 | 0.00 | 0.00 | 91 | 1017.9 |
| 20260505200853 | 16 | 180 | 3.2 | 6.4 | 0.00 | 0.00 | 0.00 | 91 | 1017.9 |
| 20260505200351 | 17 | 180 | 4.8 | 6.4 | 0.00 | 0.00 | 0.00 | 91 | 1017.9 |
| 20260505195849 | 17 | 146 | 4.8 | 6.4 | 0.00 | 0.00 | 0.00 | 91 | 1017.8 |
| 20260505195346 | 17 | 146 | 6.4 | 6.4 | 0.00 | 0.00 | 0.00 | 91 | 1017.8 |
| 20260505194844 | 17 | 135 | 4.8 | 8.0 | 0.00 | 0.00 | 0.00 | 90 | 1017.7 |
| 20260505194342 | 17 | 135 | 6.4 | 9.7 | 0.00 | 0.00 | 0.00 | 90 | 1017.8 |
| 20260505193839 | 17 | 157 | 6.4 | 8.0 | 0.00 | 0.00 | 0.00 | 90 | 1017.6 |
| 20260505193337 | 17 | 135 | 4.8 | 8.0 | 0.00 | 0.00 | 0.00 | 90 | 1017.6 |
| 20260505192834 | 17 | 168 | 8.0 | 9.7 | 0.00 | 0.00 | 0.00 | 90 | 1017.5 |
| 20260505192334 | 17 | 135 | 6.4 | 8.0 | 0.00 | 0.00 | 0.00 | 89 | 1017.6 |
| 20260505191830 | 17 | 146 | 6.4 | 8.0 | 0.00 | 0.00 | 0.00 | 89 | 1017.5 |
| 20260505191328 | 17 | 135 | 6.4 | 6.4 | 0.00 | 0.00 | 0.00 | 89 | 1017.5 |
| 20260505190826 | 17 | 135 | 4.8 | 6.4 | 0.00 | 0.00 | 0.00 | 88 | 1017.4 |
| 20260505190326 | 17 | 135 | 6.4 | 8.0 | 0.00 | 0.00 | 0.00 | 88 | 1017.4 |
| 20260505185821 | 17 | 135 | 4.8 | 6.4 | 0.00 | 0.00 | 0.00 | 88 | 1017.4 |
| 20260505184816 | 18 | 135 | 8.0 | 8.0 | 0.00 | 0.00 | 0.00 | 88 | 1017.2 |
| 20260505184314 | 18 | 135 | 6.4 | 8.0 | 0.00 | 0.00 | 0.00 | 87 | 1017.0 |
| 20260505183812 | 18 | 135 | 4.8 | 8.0 | 0.00 | 0.00 | 0.00 | 87 | 1017.0 |
| 20260505183309 | 18 | 180 | 4.8 | 8.0 | 0.00 | 0.00 | 0.00 | 87 | 1017.0 |
| 20260505182807 | 18 | 146 | 6.4 | 8.0 | 0.00 | 0.00 | 0.00 | 87 | 1017.0 |
| 20260505182306 | 18 | 180 | 8.0 | 11.3 | 0.00 | 0.00 | 0.00 | 87 | 1017.0 |
| 20260505181803 | 18 | 180 | 9.7 | 11.3 | 0.00 | 0.00 | 0.00 | 87 | 1016.9 |
| 20260505181301 | 18 | 202 | 8.0 | 9.7 | 0.00 | 0.00 | 0.00 | 87 | 1016.9 |
| 20260505180758 | 18 | 157 | 4.8 | 8.0 | 0.00 | 0.00 | 0.00 | 87 | 1016.9 |
| 20260505180258 | 18 | 180 | 8.0 | 9.7 | 0.00 | 0.00 | 0.00 | 86 | 1016.9 |
| 20260505175754 | 18 | 180 | 6.4 | 9.7 | 0.00 | 0.00 | 0.00 | 86 | 1016.8 |
| 20260505174746 | 18 | 157 | 8.0 | 11.3 | 0.00 | 0.00 | 0.00 | 86 | 1016.9 |
| 20260505174243 | 18 | 135 | 11.3 | 14.5 | 0.00 | 0.00 | 0.00 | 87 | 1016.9 |
| 20260505173741 | 18 | 135 | 8.0 | 12.9 | 0.00 | 0.00 | 0.00 | 86 | 1016.8 |
| 20260505173239 | 19 | 135 | 8.0 | 11.3 | 0.00 | 0.00 | 0.00 | 86 | 1016.8 |
| 20260505172737 | 19 | 135 | 8.0 | 9.7 | 0.00 | 0.00 | 0.00 | 85 | 1016.8 |
| 20260505172235 | 19 | 180 | 9.7 | 11.3 | 0.00 | 0.00 | 0.00 | 85 | 1016.9 |
| 20260505171732 | 19 | 135 | 9.7 | 11.3 | 0.00 | 0.00 | 0.00 | 85 | 1016.8 |
| 20260505171230 | 19 | 135 | 9.7 | 16.1 | 0.00 | 0.00 | 0.00 | 85 | 1016.8 |
| 20260505170728 | 19 | 135 | 12.9 | 14.5 | 0.00 | 0.00 | 0.00 | 85 | 1016.8 |
| 20260505165723 | 20 | 135 | 14.5 | 16.1 | 0.00 | 0.00 | 0.00 | 85 | 1017.0 |
| 20260505165221 | 20 | 146 | 11.3 | 14.5 | 0.00 | 0.00 | 0.00 | 84 | 1017.0 |
| 20260505164718 | 20 | 135 | 14.5 | 14.5 | 0.00 | 0.00 | 0.00 | 84 | 1017.0 |
| 20260505164216 | 20 | 157 | 12.9 | 14.5 | 0.00 | 0.00 | 0.00 | 83 | 1017.0 |
| 20260505163714 | 20 | 157 | 9.7 | 14.5 | 0.00 | 0.00 | 0.00 | 83 | 1017.0 |
| 20260505163212 | 20 | 146 | 9.7 | 14.5 | 0.00 | 0.00 | 0.00 | 83 | 1017.0 |
| 20260505162710 | 20 | 135 | 12.9 | 17.7 | 0.00 | 0.00 | 0.00 | 83 | 1017.1 |
| 20260505162208 | 20 | 135 | 11.3 | 16.1 | 0.00 | 0.00 | 0.00 | 83 | 1017.1 |
| 20260505161705 | 20 | 180 | 12.9 | 17.7 | 0.00 | 0.00 | 0.00 | 83 | 1017.2 |
| 20260505161202 | 20 | 146 | 14.5 | 17.7 | 0.00 | 0.00 | 0.00 | 82 | 1017.1 |
| 20260505160700 | 20 | 135 | 14.5 | 20.9 | 0.00 | 0.00 | 0.00 | 82 | 1017.1 |
| 20260505160158 | 20 | 135 | 16.1 | 20.9 | 0.00 | 0.00 | 0.00 | 82 | 1017.1 |
| 20260505153145 | 20 | 135 | 12.9 | 17.7 | 0.00 | 0.00 | 0.00 | 82 | 1017.4 |
| 20260505152642 | 20 | 168 | 14.5 | 19.3 | 0.00 | 0.00 | 0.00 | 82 | 1017.4 |
| 20260505152139 | 20 | 135 | 16.1 | 19.3 | 0.00 | 0.00 | 0.00 | 81 | 1017.4 |
| 20260505151637 | 20 | 146 | 14.5 | 19.3 | 0.00 | 0.00 | 0.00 | 81 | 1017.4 |
| 20260505151135 | 20 | 157 | 12.9 | 19.3 | 0.00 | 0.00 | 0.00 | 81 | 1017.4 |
| 20260505150633 | 20 | 146 | 14.5 | 17.7 | 0.00 | 0.00 | 0.00 | 81 | 1017.5 |
| 20260505150130 | 20 | 180 | 12.9 | 16.1 | 0.00 | 0.00 | 0.00 | 80 | 1017.5 |
| 20260505140605 | 21 | 135 | 11.3 | 11.3 | 0.00 | 0.00 | 0.00 | 75 | 1017.7 |
| 20260505125030 | 21 | 180 | 6.4 | 9.7 | 0.00 | 0.00 | 0.00 | 71 | 1017.7 |
| 20260505124528 | 21 | 180 | 4.8 | 8.0 | 0.00 | 0.00 | 0.00 | 71 | 1017.8 |
| 20260505124027 | 20 | 157 | 6.4 | 6.4 | 0.00 | 0.00 | 0.00 | 71 | 1017.8 |
| 20260505123524 | 20 | 180 | 3.2 | 4.8 | 0.00 | 0.00 | 0.00 | 71 | 1017.8 |
| 20260505123022 | 20 | 180 | 3.2 | 4.8 | 0.00 | 0.00 | 0.00 | 71 | 1017.8 |
| 20260505122520 | 20 | 180 | 3.2 | 4.8 | 0.00 | 0.00 | 0.00 | 71 | 1017.7 |
| 20260505122017 | 20 | 180 | 3.2 | 4.8 | 0.00 | 0.00 | 0.00 | 71 | 1017.7 |
| 20260505121518 | 20 | 180 | 3.2 | 3.2 | 0.00 | 0.00 | 0.00 | 72 | 1017.7 |
| 20260505120507 | 20 | 180 | 0.0 | 0.0 | 0.00 | 0.00 | 0.00 | 72 | 1017.6 |
| 20260505120005 | 20 | 135 | 0.0 | 3.2 | 0.00 | 0.00 | 0.00 | 71 | 1017.7 |
| 20260505115502 | 20 | 135 | 1.6 | 4.8 | 0.00 | 0.00 | 0.00 | 70 | 1017.6 |
| 20260505115000 | 20 | 225 | 3.2 | 4.8 | 0.00 | 0.00 | 0.00 | 70 | 1017.6 |
| 20260505114458 | 20 | 180 | 3.2 | 3.2 | 0.00 | 0.00 | 0.00 | 71 | 1017.6 |
| 20260505113957 | 20 | 225 | 1.6 | 1.6 | 0.00 | 0.00 | 0.00 | 71 | 1017.6 |
| 20260505113454 | 20 | 225 | 0.0 | 0.0 | 0.00 | 0.00 | 0.00 | 72 | 1017.7 |
| 20260505112951 | 20 | 180 | 1.6 | 1.6 | 0.00 | 0.00 | 0.00 | 72 | 1017.6 |
| 20260505112451 | 20 | 180 | 1.6 | 1.6 | 0.00 | 0.00 | 0.00 | 72 | 1017.7 |
| 20260505111947 | 20 | 180 | 1.6 | 1.6 | 0.00 | 0.00 | 0.00 | 72 | 1017.7 |
| 20260505111444 | 20 | 180 | 0.0 | 0.0 | 0.00 | 0.00 | 0.00 | 73 | 1017.8 |
| 20260505110942 | 20 | 180 | 0.0 | 0.0 | 0.00 | 0.00 | 0.00 | 73 | 1017.8 |
| 20260505110439 | 20 | 180 | 0.0 | 0.0 | 0.00 | 0.00 | 0.00 | 73 | 1017.7 |
| 20260505101919 | 20 | 315 | 0.0 | 0.0 | 0.00 | 0.00 | 0.00 | 72 | 1017.6 |
| 20260505101417 | 20 | 0 | 0.0 | 0.0 | 0.00 | 0.00 | 0.00 | 71 | 1017.3 |
| 20260505100914 | 20 | 135 | 0.0 | 1.6 | 0.00 | 0.00 | 0.00 | 71 | 1017.3 |
| 20260505100412 | 20 | 135 | 1.6 | 3.2 | 0.00 | 0.00 | 0.00 | 70 | 1017.1 |
| 20260505095910 | 21 | 135 | 1.6 | 1.6 | 0.00 | 0.00 | 0.00 | 70 | 1017.2 |
| 20260505095408 | 21 | 270 | 0.0 | 0.0 | 0.00 | 0.00 | 0.00 | 70 | 1017.4 |
| 20260505094906 | 21 | 180 | 0.0 | 0.0 | 0.00 | 0.00 | 0.00 | 69 | 1017.2 |
| 20260505094403 | 21 | 180 | 0.0 | 1.6 | 0.00 | 0.00 | 0.00 | 69 | 1017.0 |
| 20260505093901 | 21 | 180 | 0.0 | 1.6 | 0.00 | 0.00 | 0.00 | 68 | 1017.0 |
| 20260505093359 | 21 | 135 | 0.0 | 0.0 | 0.00 | 0.00 | 0.00 | 68 | 1016.8 |
| 20260505092856 | 21 | 315 | 0.0 | 0.0 | 0.00 | 0.00 | 0.00 | 68 | 1017.0 |
| 20260505092354 | 21 | 225 | 0.0 | 1.6 | 0.00 | 0.00 | 0.00 | 67 | 1016.8 |
| 20260505091851 | 21 | 225 | 1.6 | 1.6 | 0.00 | 0.00 | 0.00 | 67 | 1016.7 |
| 20260505091349 | 21 | 135 | 1.6 | 1.6 | 0.00 | 0.00 | 0.00 | 66 | 1016.6 |
| 20260505090849 | 22 | 90 | 0.0 | 1.6 | 0.00 | 0.00 | 0.00 | 65 | 1016.7 |
| 20260505090345 | 22 | 135 | 0.0 | 0.0 | 0.00 | 0.00 | 0.00 | 64 | 1016.6 |
| 20260505085843 | 22 | 270 | 0.0 | 0.0 | 0.00 | 0.00 | 0.00 | 64 | 1016.4 |
| 20260505085343 | 22 | 270 | 0.0 | 0.0 | 0.00 | 0.00 | 0.00 | 64 | 1016.5 |
| 20260505084838 | 22 | 225 | 0.0 | 0.0 | 0.00 | 0.00 | 0.00 | 63 | 1016.4 |
| 20260505084336 | 22 | 225 | 0.0 | 0.0 | 0.00 | 0.00 | 0.00 | 62 | 1016.4 |
| 20260505083833 | 22 | 270 | 0.0 | 0.0 | 0.00 | 0.00 | 0.00 | 62 | 1016.3 |
| 20260505083331 | 23 | 0 | 0.0 | 0.0 | 0.00 | 0.00 | 0.00 | 62 | 1016.2 |
| 20260505082829 | 23 | 225 | 0.0 | 1.6 | 0.00 | 0.00 | 0.00 | 62 | 1015.9 |
| 20260505082326 | 23 | 225 | 0.0 | 0.0 | 0.00 | 0.00 | 0.00 | 61 | 1015.9 |
| 20260505081319 | 23 | 225 | 0.0 | 0.0 | 0.00 | 0.00 | 0.00 | 60 | 1016.0 |
| 20260505080819 | 23 | 135 | 0.0 | 0.0 | 0.00 | 0.00 | 0.00 | 59 | 1015.9 |
| 20260505080315 | 24 | 90 | 0.0 | 0.0 | 0.00 | 0.00 | 0.00 | 59 | 1015.7 |
| 20260505075812 | 24 | 90 | 0.0 | 0.0 | 0.00 | 0.00 | 0.00 | 58 | 1015.6 |
| 20260505075310 | 24 | 90 | 0.0 | 0.0 | 0.00 | 0.00 | 0.00 | 58 | 1015.6 |
| 20260505074807 | 25 | 270 | 0.0 | 0.0 | 0.00 | 0.00 | 0.00 | 57 | 1015.6 |
| 20260505074305 | 25 | 270 | 0.0 | 0.0 | 0.00 | 0.00 | 0.00 | 57 | 1015.6 |
| 20260505073803 | 25 | 270 | 0.0 | 0.0 | 0.00 | 0.00 | 0.00 | 57 | 1015.7 |
| 20260505073300 | 25 | 270 | 0.0 | 0.0 | 0.00 | 0.00 | 0.00 | 56 | 1015.4 |
| 20260505072758 | 25 | 270 | 0.0 | 0.0 | 0.00 | 0.00 | 0.00 | 56 | 1015.3 |
| 20260505072256 | 26 | 270 | 0.0 | 0.0 | 0.00 | 0.00 | 0.00 | 55 | 1015.2 |
| 20260505071754 | 26 | 270 | 0.0 | 1.6 | 0.00 | 0.00 | 0.00 | 55 | 1015.2 |
| 20260505071252 | 26 | 180 | 1.6 | 1.6 | 0.00 | 0.00 | 0.00 | 55 | 1015.0 |
| 20260505070750 | 26 | 135 | 0.0 | 0.0 | 0.00 | 0.00 | 0.00 | 54 | 1015.1 |
| 20260505070247 | 26 | 225 | 0.0 | 3.2 | 0.00 | 0.00 | 0.00 | 54 | 1015.1 |
| 20260505065744 | 26 | 270 | 0.0 | 0.0 | 0.00 | 0.00 | 0.00 | 54 | 1015.0 |
| 20260505065242 | 26 | 270 | 0.0 | 1.6 | 0.00 | 0.00 | 0.00 | 54 | 1015.1 |
| 20260505064740 | 26 | 225 | 0.0 | 4.8 | 0.00 | 0.00 | 0.00 | 54 | 1015.1 |
| 20260505064238 | 26 | 157 | 3.2 | 4.8 | 0.00 | 0.00 | 0.00 | 54 | 1015.0 |
| 20260505063735 | 26 | 270 | 0.0 | 3.2 | 0.00 | 0.00 | 0.00 | 55 | 1015.0 |
| 20260505063233 | 26 | 157 | 1.6 | 3.2 | 0.00 | 0.00 | 0.00 | 55 | 1015.0 |
| 20260505062731 | 26 | 225 | 0.0 | 3.2 | 0.00 | 0.00 | 0.00 | 54 | 1014.9 |
| 20260505062231 | 26 | 180 | 1.6 | 3.2 | 0.00 | 0.00 | 0.00 | 54 | 1014.7 |
| 20260505061727 | 26 | 146 | 1.6 | 3.2 | 0.00 | 0.00 | 0.00 | 54 | 1014.9 |
| 20260505061224 | 26 | 180 | 1.6 | 4.8 | 0.00 | 0.00 | 0.00 | 55 | 1014.9 |
| 20260505060721 | 26 | 135 | 0.0 | 4.8 | 0.00 | 0.00 | 0.00 | 55 | 1014.9 |
| 20260505060219 | 26 | 135 | 3.2 | 4.8 | 0.00 | 0.00 | 0.00 | 55 | 1014.8 |
| 20260505055717 | 26 | 236 | 0.0 | 3.2 | 0.00 | 0.00 | 0.00 | 55 | 1014.7 |
| 20260505055215 | 26 | 180 | 1.6 | 4.8 | 0.00 | 0.00 | 0.00 | 55 | 1015.0 |
| 20260505054712 | 26 | 135 | 4.8 | 4.8 | 0.00 | 0.00 | 0.00 | 55 | 1014.9 |
| 20260505054210 | 26 | 157 | 3.2 | 4.8 | 0.00 | 0.00 | 0.00 | 55 | 1015.0 |
| 20260505053710 | 26 | 270 | 3.2 | 4.8 | 0.00 | 0.00 | 0.00 | 55 | 1014.9 |
| 20260505053206 | 26 | 247 | 4.8 | 4.8 | 0.00 | 0.00 | 0.00 | 55 | 1015.0 |
| 20260505052203 | 26 | 225 | 1.6 | 3.2 | 0.00 | 0.00 | 0.00 | 55 | 1015.0 |
| 20260505051658 | 26 | 180 | 4.8 | 4.8 | 0.00 | 0.00 | 0.00 | 55 | 1014.9 |
| 20260505051156 | 26 | 247 | 0.0 | 4.8 | 0.00 | 0.00 | 0.00 | 55 | 1015.0 |
| 20260505050654 | 26 | 292 | 6.4 | 8.0 | 0.00 | 0.00 | 0.00 | 54 | 1015.0 |
| 20260505050152 | 26 | 270 | 4.8 | 4.8 | 0.00 | 0.00 | 0.00 | 54 | 1015.0 |
| 20260505041631 | 26 | 225 | 4.8 | 6.4 | 0.00 | 0.00 | 0.00 | 56 | 1014.7 |
| 20260505041129 | 26 | 225 | 3.2 | 6.4 | 0.00 | 0.00 | 0.00 | 56 | 1014.8 |
| 20260505040627 | 26 | 315 | 0.0 | 6.4 | 0.00 | 0.00 | 0.00 | 56 | 1014.9 |
| 20260505040124 | 26 | 270 | 1.6 | 4.8 | 0.00 | 0.00 | 0.00 | 55 | 1014.9 |
| 20260505035622 | 26 | 225 | 0.0 | 9.7 | 0.00 | 0.00 | 0.00 | 55 | 1014.8 |
| 20260505035120 | 26 | 337 | 3.2 | 3.2 | 0.00 | 0.00 | 0.00 | 56 | 1014.9 |
| 20260505034618 | 26 | 270 | 0.0 | 4.8 | 0.00 | 0.00 | 0.00 | 56 | 1014.8 |
| 20260505034115 | 26 | 225 | 1.6 | 6.4 | 0.00 | 0.00 | 0.00 | 56 | 1015.0 |
| 20260505033613 | 26 | 270 | 6.4 | 9.7 | 0.00 | 0.00 | 0.00 | 56 | 1015.2 |
| 20260505033110 | 26 | 326 | 1.6 | 6.4 | 0.00 | 0.00 | 0.00 | 56 | 1015.1 |
| 20260505032608 | 26 | 270 | 1.6 | 4.8 | 0.00 | 0.00 | 0.00 | 55 | 1015.2 |
| 20260505032106 | 26 | 270 | 3.2 | 8.0 | 0.00 | 0.00 | 0.00 | 55 | 1015.2 |
| 20260505031605 | 26 | 337 | 4.8 | 6.4 | 0.00 | 0.00 | 0.00 | 54 | 1015.1 |
| 20260505031102 | 26 | 22 | 4.8 | 6.4 | 0.00 | 0.00 | 0.00 | 53 | 1015.1 |
| 20260505030600 | 26 | 0 | 8.0 | 8.0 | 0.00 | 0.00 | 0.00 | 54 | 1015.2 |
| 20260505030057 | 26 | 292 | 0.0 | 4.8 | 0.00 | 0.00 | 0.00 | 54 | 1015.1 |
| 20260505025555 | 26 | 315 | 4.8 | 4.8 | 0.00 | 0.00 | 0.00 | 54 | 1015.3 |
| 20260505025052 | 26 | 225 | 1.6 | 4.8 | 0.00 | 0.00 | 0.00 | 55 | 1015.2 |
| 20260505024550 | 26 | 180 | 1.6 | 4.8 | 0.00 | 0.00 | 0.00 | 55 | 1015.4 |
| 20260505024048 | 26 | 180 | 4.8 | 4.8 | 0.00 | 0.00 | 0.00 | 54 | 1015.6 |
| 20260505023545 | 26 | 270 | 0.0 | 1.6 | 0.00 | 0.00 | 0.00 | 55 | 1015.7 |
| 20260505023045 | 26 | 90 | 0.0 | 3.2 | 0.00 | 0.00 | 0.00 | 54 | 1015.9 |
| 20260505022541 | 26 | 135 | 3.2 | 6.4 | 0.00 | 0.00 | 0.00 | 53 | 1015.6 |
| 20260505022040 | 26 | 225 | 3.2 | 6.4 | 0.00 | 0.00 | 0.00 | 56 | 1015.8 |
| 20260505021542 | 26 | 135 | 1.6 | 1.6 | 0.00 | 0.00 | 0.00 | 57 | 1015.9 |
| 20260505021036 | 26 | 225 | 1.6 | 3.2 | 0.00 | 0.00 | 0.00 | 57 | 1015.8 |
| 20260505020535 | 26 | 315 | 3.2 | 9.7 | 0.00 | 0.00 | 0.00 | 56 | 1015.8 |
| 20260505020032 | 26 | 45 | 3.2 | 9.7 | 0.00 | 0.00 | 0.00 | 56 | 1016.0 |
| 20260505015527 | 26 | 337 | 6.4 | 9.7 | 0.00 | 0.00 | 0.00 | 57 | 1016.2 |
| 20260505015026 | 26 | 202 | 0.0 | 6.4 | 0.00 | 0.00 | 0.00 | 58 | 1016.4 |
| 20260505014524 | 26 | 225 | 6.4 | 6.4 | 0.00 | 0.00 | 0.00 | 57 | 1016.2 |
| 20260505014022 | 26 | 225 | 1.6 | 4.8 | 0.00 | 0.00 | 0.00 | 58 | 1016.3 |
| 20260505013519 | 26 | 0 | 6.4 | 9.7 | 0.00 | 0.00 | 0.00 | 58 | 1016.5 |
| 20260505013019 | 26 | 337 | 4.8 | 4.8 | 0.00 | 0.00 | 0.00 | 59 | 1016.7 |
| 20260505012514 | 26 | 0 | 4.8 | 8.0 | 0.00 | 0.00 | 0.00 | 58 | 1016.6 |
| 20260505012012 | 26 | 90 | 6.4 | 11.3 | 0.00 | 0.00 | 0.00 | 59 | 1016.6 |
| 20260505011509 | 26 | 90 | 4.8 | 11.3 | 0.00 | 0.00 | 0.00 | 59 | 1016.6 |
| 20260505011007 | 26 | 22 | 11.3 | 11.3 | 0.00 | 0.00 | 0.00 | 60 | 1016.7 |
| 20260505010504 | 25 | 0 | 9.7 | 11.3 | 0.00 | 0.00 | 0.00 | 62 | 1017.0 |
| 20260505010002 | 25 | 45 | 14.5 | 14.5 | 0.00 | 0.00 | 0.00 | 62 | 1017.0 |
| 20260505005500 | 25 | 22 | 3.2 | 8.0 | 0.00 | 0.00 | 0.00 | 64 | 1017.2 |
| 20260505004957 | 25 | 78 | 1.6 | 9.7 | 0.00 | 0.00 | 0.00 | 64 | 1017.3 |
| 20260505004455 | 25 | 326 | 3.2 | 12.9 | 0.00 | 0.00 | 0.00 | 64 | 1017.5 |
| 20260505003953 | 25 | 45 | 6.4 | 9.7 | 0.00 | 0.00 | 0.00 | 64 | 1017.3 |
| 20260505003452 | 24 | 45 | 8.0 | 9.7 | 0.00 | 0.00 | 0.00 | 65 | 1017.3 |
| 20260505002949 | 24 | 45 | 8.0 | 11.3 | 0.00 | 0.00 | 0.00 | 65 | 1017.5 |
| 20260505002446 | 24 | 0 | 11.3 | 11.3 | 0.00 | 0.00 | 0.00 | 66 | 1017.5 |
| 20260505001944 | 24 | 0 | 8.0 | 14.5 | 0.00 | 0.00 | 0.00 | 67 | 1017.5 |
| 20260505001441 | 23 | 22 | 6.4 | 16.1 | 0.00 | 0.00 | 0.00 | 67 | 1017.6 |
| 20260505000939 | 23 | 0 | 4.8 | 8.0 | 0.00 | 0.00 | 0.00 | 68 | 1017.7 |
| 20260505000437 | 23 | 22 | 9.7 | 12.9 | 0.00 | 0.00 | 0.00 | 67 | 1017.7 |
| 20260504235935 | 23 | 56 | 4.8 | 12.9 | 0.00 | 0.00 | 0.00 | 68 | 1017.9 |
| 20260504235433 | 23 | 22 | 4.8 | 9.7 | 0.00 | 0.00 | 0.00 | 71 | 1018.1 |
| 20260504234930 | 23 | 45 | 11.3 | 11.3 | 0.00 | 0.00 | 0.00 | 71 | 1018.3 |
| 20260504234430 | 23 | 135 | 3.2 | 9.7 | 0.00 | 0.00 | 0.00 | 72 | 1018.3 |
| 20260504233926 | 22 | 22 | 9.7 | 9.7 | 0.00 | 0.00 | 0.00 | 72 | 1018.4 |
| 20260504233424 | 22 | 0 | 3.2 | 9.7 | 0.00 | 0.00 | 0.00 | 75 | 1018.5 |
| 20260504232921 | 22 | 33 | 3.2 | 6.4 | 0.00 | 0.00 | 0.00 | 76 | 1018.4 |
| 20260504232418 | 22 | 67 | 3.2 | 8.0 | 0.00 | 0.00 | 0.00 | 76 | 1018.5 |
| 20260504231916 | 22 | 45 | 0.0 | 9.7 | 0.00 | 0.00 | 0.00 | 77 | 1018.6 |
| 20260504231415 | 22 | 90 | 3.2 | 9.7 | 0.00 | 0.00 | 0.00 | 77 | 1018.5 |
| 20260504230912 | 22 | 90 | 8.0 | 8.0 | 0.00 | 0.00 | 0.00 | 77 | 1018.4 |
| 20260504230411 | 21 | 45 | 1.6 | 4.8 | 0.00 | 0.00 | 0.00 | 79 | 1018.6 |
| 20260504225907 | 21 | 45 | 1.6 | 4.8 | 0.00 | 0.00 | 0.00 | 80 | 1018.4 |
| 20260504225406 | 21 | 0 | 0.0 | 4.8 | 0.00 | 0.00 | 0.00 | 80 | 1018.4 |
| 20260504224358 | 21 | 45 | 1.6 | 8.0 | 0.00 | 0.00 | 0.00 | 82 | 1018.1 |